Lafayette, TN

2:24 PM CST on December 28, 2014 (GMT -0600)
Bowling Green-Warren County Regional | Change Station
CLOSE
Current Station
Airport
Location: Bowling Green,
Elevation: 548 ft
Nearby Weather Stations

Elev 548 ft 36.96 °N, 86.42 °W | Updated 31 minutes ago

Rain
Rain
38 °F
Feels Like 32 °F
N
8
Wind Variable Wind from NW

Today
High -- | Low -- °F
--% Chance of Precip.
Yesterday
High -- | Low -- °F
Precip. -- in
6:55 AM 4:36 PM
Waxing Crescent, 51% visible
Pressure 30.15 in
Visibility 6.0 miles
Clouds Overcast 800 ft
Windchill 32 °F
Dew Point 34 °F
Humidity 86%
Rainfall 0.04 in
Snow Depth Not available.
UV 1 out of 12
Pollen .10 out of 12
Air Quality Not available.
Flu Activity Not available.
METAR KBWG 281953Z AUTO 31007KT 6SM BR OVC008 03/01 A3015 RMK AO2 CIG 006V010 SLP210 T00330011 $

More Conditions Fewer Conditions

Pressure 30.15 in
Visibility 6.0 miles
Clouds Overcast 800 ft
Windchill 32 °F
Dew Point 34 °F
Humidity 86%
Rainfall 0.04 in
Snow Depth Not available.
UV 1 out of 12
Pollen .10 out of 12
Air Quality Not available.
Flu Activity Not available.
METAR KBWG 281953Z AUTO 31007KT 6SM BR OVC008 03/01 A3015 RMK AO2 CIG 006V010 SLP210 T00330011 $

More Conditions Fewer Conditions

10-Day Weather Forecast

Almanac

Astronomy

Dec. 28, 2014 Rise Set
Actual Time
Civil Twilight
Nautical Twilight
Astronomical Twilight
Moon
Length of Visible Light
Length of Day
Tomorrow will be .
, % of the Moon is Illuminated

Today's Extremes

State Highs State Lows

Community

WunderPhotos

Upload Photos

1,781,411 photos uploaded!

WunderBlogs® & News

Nearby

Air Quality

  Air Quality AQ Index Pollutant
Not available.

Snow Depth

Station Depth Elevation

Earthquake Activity

City Distance Mag. Time & Date
Minimum magnitude displayed is 2.5.

Coastal Water Temperatures

Place Temperature

Nearby Weather Stations